Carlos E Rui — CULA8 — position and weather

sailwx.info

Track history (hours):
 
Tides and Currents Weather Stations Pressure Air Temp Water Temp Dewpoint Dewpoint Depression Visibility Wind Speed Wind Dir Waves Ship Positions

Carlos E Rui

Last reported at 2018-Jan-18 05:27 UTC. Time now 2018-Jan-19 03:17 UTC.
Position N 38°26' W 009°07'.

Length 15 m.

Type: Fishing. MMSI: 263269000.

Date/timePositionNaut miles runAvg speedWind from/ knotsBaromVisibWave heightAir tempDewpointWater temp
2018-Jan-18 05:27N 38°26' W 009°07'0 0.2
2018-Jan-18 05:00N 38°26' W 009°07'4 6.9
2018-Jan-18 04:29N 38°24' W 009°10'4 7.9
2018-Jan-18 03:59N 38°23' W 009°15'4 7.9
2018-Jan-18 03:30N 38°22' W 009°20'3 5.1
2018-Jan-18 02:59N 38°20' W 009°21'2 4.7
2018-Jan-18 02:30N 38°20' W 009°24'2 3.9
2018-Jan-18 01:59N 38°22' W 009°25'1 2.3
2018-Jan-18 01:30N 38°22' W 009°24'1 1.2
2018-Jan-18 00:59N 38°22' W 009°24'1 0.6
2018-Jan-17 23:59N 38°22' W 009°25'0 0.7
2018-Jan-17 23:54N 38°22' W 009°25'  
2018-Jan-11 07:26N 38°26' W 009°07'0 0.2
2018-Jan-11 06:41N 38°26' W 009°07'0 0.3
2018-Jan-11 06:21N 38°26' W 009°07'5 6.5
2018-Jan-11 05:32N 38°23' W 009°13'0 7.4
2018-Jan-11 05:31N 38°23' W 009°13'4 8.0
2018-Jan-11 04:59N 38°23' W 009°18'3 5.6
2018-Jan-11 04:28N 38°21' W 009°21'2 4.6
2018-Jan-11 03:58N 38°19' W 009°23'3 5.0
2018-Jan-11 03:22N 38°22' W 009°26'2 4.5
2018-Jan-11 03:00N 38°23' W 009°24'2 3.7
2018-Jan-11 02:30N 38°21' W 009°25'0 0.2
2018-Jan-11 01:05N 38°21' W 009°25'0 0.6
2018-Jan-11 01:00N 38°21' W 009°25'0 0.7
2018-Jan-11 00:20N 38°22' W 009°25'0 0.7
2018-Jan-10 23:45N 38°22' W 009°25'0 0.9
2018-Jan-10 23:28N 38°22' W 009°25'0 0.8
2018-Jan-10 23:00N 38°22' W 009°24'0 0.6
2018-Jan-10 22:29N 38°22' W 009°24'0 0.2
2018-Jan-10 22:00N 38°22' W 009°24'0 0.4
2018-Jan-10 21:28N 38°22' W 009°23'3 5.8
2018-Jan-10 20:59N 38°20' W 009°23'1 0.7
2018-Jan-10 19:51N 38°20' W 009°22'1 0.9
2018-Jan-10 18:30N 38°21' W 009°21'0 0.9
2018-Jan-10 17:59N 38°21' W 009°21'0 0.4
2018-Jan-10 17:24N 38°21' W 009°21'0 0.3
2018-Jan-10 16:58N 38°21' W 009°21'1 1.5
2018-Jan-10 16:28N 38°22' W 009°20'4 7.7
2018-Jan-10 15:56N 38°23' W 009°15'7 7.7
2018-Jan-10 15:03N 38°26' W 009°07'1 8.0
2018-Jan-10 14:58N 38°26' W 009°07'0 0.0
2018-Jan-09 05:26N 38°26' W 009°07'5 6.7
2018-Jan-09 04:38N 38°23' W 009°13'1 8.7
2018-Jan-09 04:30N 38°23' W 009°14'4 8.1
2018-Jan-09 04:00N 38°22' W 009°19'3 5.0
2018-Jan-09 03:30N 38°20' W 009°21'2 3.8
2018-Jan-09 02:57N 38°20' W 009°24'2 4.4
2018-Jan-09 02:28N 38°21' W 009°26'2 3.8
2018-Jan-09 02:00N 38°22' W 009°24'0 1.0
2018-Jan-09 01:30N 38°23' W 009°24'0 0.4
2018-Jan-09 01:00N 38°23' W 009°24'0 0.6
2018-Jan-09 00:30N 38°22' W 009°25'1 1.1
2018-Jan-09 00:00N 38°22' W 009°25'0 0.6
2018-Jan-08 23:30N 38°22' W 009°25'0 0.8
2018-Jan-08 22:59N 38°21' W 009°26'0 0.9
2018-Jan-08 22:30N 38°21' W 009°26'0 1.0
2018-Jan-08 22:00N 38°20' W 009°25'1 1.0
2018-Jan-08 21:28N 38°20' W 009°25'0 0.9
2018-Jan-08 20:59N 38°20' W 009°24'1 1.0
2018-Jan-08 20:27N 38°20' W 009°23'0 1.0
2018-Jan-08 20:00N 38°20' W 009°23'1 0.9
2018-Jan-08 19:12N 38°20' W 009°22'0 0.7
2018-Jan-08 18:54N 38°20' W 009°22'0 1.0
2018-Jan-08 18:30N 38°20' W 009°22'1 1.3
2018-Jan-08 18:00N 38°21' W 009°21'0 1.0
2018-Jan-08 17:30N 38°21' W 009°21'0 0.3
2018-Jan-08 17:00N 38°21' W 009°21'0 0.3
2018-Jan-08 16:23N 38°21' W 009°21'3 8.0
2018-Jan-08 16:00N 38°23' W 009°17'8 8.0
2018-Jan-08 14:59N 38°26' W 009°08'1 1.3
2018-Jan-08 14:17N 38°26' W 009°07'  
Track history (hours):
 
Tides and Currents Weather Stations Pressure Air Temp Water Temp Dewpoint Dewpoint Depression Visibility Wind Speed Wind Dir Waves Ship Positions

Carlos E Rui

Last reported at 2018-Jan-18 05:27 UTC. Time now 2018-Jan-19 03:17 UTC.
Position N 38°26' W 009°07'.

Length 15 m.

Type: Fishing. MMSI: 263269000.

Date/timePositionNaut miles runAvg speedWind from/ knotsBaromVisibWave heightAir tempDewpointWater temp
2018-Jan-18 05:27N 38°26' W 009°07'0 0.2
2018-Jan-18 05:00N 38°26' W 009°07'4 6.9
2018-Jan-18 04:29N 38°24' W 009°10'4 7.9
2018-Jan-18 03:59N 38°23' W 009°15'4 7.9
2018-Jan-18 03:30N 38°22' W 009°20'3 5.1
2018-Jan-18 02:59N 38°20' W 009°21'2 4.7
2018-Jan-18 02:30N 38°20' W 009°24'2 3.9
2018-Jan-18 01:59N 38°22' W 009°25'1 2.3
2018-Jan-18 01:30N 38°22' W 009°24'1 1.2
2018-Jan-18 00:59N 38°22' W 009°24'1 0.6
2018-Jan-17 23:59N 38°22' W 009°25'0 0.7
2018-Jan-17 23:54N 38°22' W 009°25'  
2018-Jan-11 07:26N 38°26' W 009°07'0 0.2
2018-Jan-11 06:41N 38°26' W 009°07'0 0.3
2018-Jan-11 06:21N 38°26' W 009°07'5 6.5
2018-Jan-11 05:32N 38°23' W 009°13'0 7.4
2018-Jan-11 05:31N 38°23' W 009°13'4 8.0
2018-Jan-11 04:59N 38°23' W 009°18'3 5.6
2018-Jan-11 04:28N 38°21' W 009°21'2 4.6
2018-Jan-11 03:58N 38°19' W 009°23'3 5.0
2018-Jan-11 03:22N 38°22' W 009°26'2 4.5
2018-Jan-11 03:00N 38°23' W 009°24'2 3.7
2018-Jan-11 02:30N 38°21' W 009°25'0 0.2
2018-Jan-11 01:05N 38°21' W 009°25'0 0.6
2018-Jan-11 01:00N 38°21' W 009°25'0 0.7
2018-Jan-11 00:20N 38°22' W 009°25'0 0.7
2018-Jan-10 23:45N 38°22' W 009°25'0 0.9
2018-Jan-10 23:28N 38°22' W 009°25'0 0.8
2018-Jan-10 23:00N 38°22' W 009°24'0 0.6
2018-Jan-10 22:29N 38°22' W 009°24'0 0.2
2018-Jan-10 22:00N 38°22' W 009°24'0 0.4
2018-Jan-10 21:28N 38°22' W 009°23'3 5.8
2018-Jan-10 20:59N 38°20' W 009°23'1 0.7
2018-Jan-10 19:51N 38°20' W 009°22'1 0.9
2018-Jan-10 18:30N 38°21' W 009°21'0 0.9
2018-Jan-10 17:59N 38°21' W 009°21'0 0.4
2018-Jan-10 17:24N 38°21' W 009°21'0 0.3
2018-Jan-10 16:58N 38°21' W 009°21'1 1.5
2018-Jan-10 16:28N 38°22' W 009°20'4 7.7
2018-Jan-10 15:56N 38°23' W 009°15'7 7.7
2018-Jan-10 15:03N 38°26' W 009°07'1 8.0
2018-Jan-10 14:58N 38°26' W 009°07'0 0.0
2018-Jan-09 05:26N 38°26' W 009°07'5 6.7
2018-Jan-09 04:38N 38°23' W 009°13'1 8.7
2018-Jan-09 04:30N 38°23' W 009°14'4 8.1
2018-Jan-09 04:00N 38°22' W 009°19'3 5.0
2018-Jan-09 03:30N 38°20' W 009°21'2 3.8
2018-Jan-09 02:57N 38°20' W 009°24'2 4.4
2018-Jan-09 02:28N 38°21' W 009°26'2 3.8
2018-Jan-09 02:00N 38°22' W 009°24'0 1.0
2018-Jan-09 01:30N 38°23' W 009°24'0 0.4
2018-Jan-09 01:00N 38°23' W 009°24'0 0.6
2018-Jan-09 00:30N 38°22' W 009°25'1 1.1
2018-Jan-09 00:00N 38°22' W 009°25'0 0.6
2018-Jan-08 23:30N 38°22' W 009°25'0 0.8
2018-Jan-08 22:59N 38°21' W 009°26'0 0.9
2018-Jan-08 22:30N 38°21' W 009°26'0 1.0
2018-Jan-08 22:00N 38°20' W 009°25'1 1.0
2018-Jan-08 21:28N 38°20' W 009°25'0 0.9
2018-Jan-08 20:59N 38°20' W 009°24'1 1.0
2018-Jan-08 20:27N 38°20' W 009°23'0 1.0
2018-Jan-08 20:00N 38°20' W 009°23'1 0.9
2018-Jan-08 19:12N 38°20' W 009°22'0 0.7
2018-Jan-08 18:54N 38°20' W 009°22'0 1.0
2018-Jan-08 18:30N 38°20' W 009°22'1 1.3
2018-Jan-08 18:00N 38°21' W 009°21'0 1.0
2018-Jan-08 17:30N 38°21' W 009°21'0 0.3
2018-Jan-08 17:00N 38°21' W 009°21'0 0.3
2018-Jan-08 16:23N 38°21' W 009°21'3 8.0
2018-Jan-08 16:00N 38°23' W 009°17'8 8.0
2018-Jan-08 14:59N 38°26' W 009°08'1 1.3
2018-Jan-08 14:17N 38°26' W 009°07'  

Dump ship's entire track history